Time;durP1;ratioP1;P1;durP2;ratioP2;P2;SDS_P1;SDS_P2;PMS_P1;PMS_P2;Temp;Humidity;BMP_temperature;BMP_pressure;BME280_temperature;BME280_humidity;BME280_pressure;Samples;Min_cycle;Max_cycle;Signal;HPM_P1;HPM_P2
2021/12/24 00:00:39;;;;;;;92.60;36.33;;;;;;;;;;5008456;28;20676;-87
2021/12/24 00:03:04;;;;;;;86.30;35.80;;;;;;;;;;5026287;28;20771;-86
2021/12/24 00:05:31;;;;;;;93.97;36.63;;;;;;;;;;5003617;28;20282;-88
2021/12/24 00:07:57;;;;;;;95.90;37.77;;;;;;;;;;5009923;28;20208;-88
2021/12/24 00:10:23;;;;;;;93.53;37.30;;;;;;;;;;5011441;28;20186;-88
2021/12/24 00:13:06;;;;;;;94.97;36.97;;;;;;;;;;5014133;28;20202;-87
2021/12/24 00:18:08;;;;;;;89.17;36.20;;;;;;;;;;5030229;28;20187;-86
2021/12/24 00:36:58;;;;;;;75.90;33.73;;;;;;;;;;5030831;28;20232;-87
2021/12/24 00:39:23;;;;;;;71.20;34.37;;;;;;;;;;5011429;28;20202;-88
2021/12/24 00:41:48;;;;;;;78.77;33.53;;;;;;;;;;5010048;28;20243;-87
2021/12/24 00:44:14;;;;;;;71.00;34.13;;;;;;;;;;5015035;28;20179;-87
2021/12/24 00:46:41;;;;;;;67.50;32.97;;;;;;;;;;5009863;28;20189;-87
2021/12/24 00:49:07;;;;;;;68.60;32.23;;;;;;;;;;5016479;28;21389;-87
2021/12/24 00:51:55;;;;;;;66.37;32.30;;;;;;;;;;5028635;28;20243;-87
2021/12/24 00:57:02;;;;;;;66.33;32.37;;;;;;;;;;5030624;28;20239;-86
2021/12/24 00:59:28;;;;;;;68.40;31.80;;;;;;;;;;5014503;28;20201;-87
2021/12/24 01:01:56;;;;;;;61.33;30.73;;;;;;;;;;5006655;28;20239;-87
2021/12/24 01:04:21;;;;;;;65.30;31.40;;;;;;;;;;5029392;28;20187;-87
2021/12/24 01:06:47;;;;;;;65.00;31.77;;;;;;;;;;5004681;28;20221;-87
2021/12/24 01:09:12;;;;;;;65.07;32.63;;;;;;;;;;5009024;28;20190;-87
2021/12/24 01:11:38;;;;;;;62.67;32.10;;;;;;;;;;5008302;28;20211;-87
2021/12/24 01:14:04;;;;;;;63.83;31.60;;;;;;;;;;5005376;28;20186;-88
2021/12/24 01:16:43;;;;;;;68.10;32.17;;;;;;;;;;5011525;28;20216;-87
2021/12/24 01:19:14;;;;;;;66.93;31.77;;;;;;;;;;5005923;28;20194;-87
2021/12/24 01:25:03;;;;;;;53.70;28.83;;;;;;;;;;5004769;28;20204;-88
2021/12/24 01:27:58;;;;;;;58.03;28.27;;;;;;;;;;5013037;28;20634;-89
2021/12/24 01:38:38;;;;;;;58.80;30.47;;;;;;;;;;5012140;28;20603;-89
2021/12/24 01:41:07;;;;;;;55.40;28.73;;;;;;;;;;5016064;28;20208;-88
2021/12/24 01:43:33;;;;;;;57.17;29.10;;;;;;;;;;5005015;28;20221;-88
2021/12/24 01:46:01;;;;;;;62.17;29.97;;;;;;;;;;5005205;28;20583;-88
2021/12/24 01:48:26;;;;;;;54.13;29.13;;;;;;;;;;5010398;28;20217;-89
2021/12/24 01:50:53;;;;;;;59.40;30.07;;;;;;;;;;5012372;28;20194;-90
2021/12/24 01:53:24;;;;;;;54.73;28.50;;;;;;;;;;5010839;28;20187;-87
2021/12/24 01:55:54;;;;;;;50.57;27.00;;;;;;;;;;5004505;28;20194;-88
2021/12/24 01:58:34;;;;;;;58.00;28.33;;;;;;;;;;5012918;28;20214;-87
2021/12/24 02:00:59;;;;;;;54.70;27.67;;;;;;;;;;4999782;28;20689;-88
2021/12/24 02:03:25;;;;;;;55.03;27.77;;;;;;;;;;5007860;28;20213;-88
2021/12/24 02:05:53;;;;;;;50.67;26.30;;;;;;;;;;5008523;28;20190;-87
2021/12/24 02:08:19;;;;;;;51.63;26.33;;;;;;;;;;5013085;28;20186;-88
2021/12/24 02:10:44;;;;;;;52.63;26.17;;;;;;;;;;5006512;28;20209;-88
2021/12/24 02:13:13;;;;;;;51.00;26.17;;;;;;;;;;5009556;28;20638;-87
2021/12/24 02:18:46;;;;;;;50.00;25.33;;;;;;;;;;5013615;28;20190;-88
2021/12/24 02:29:20;;;;;;;48.63;25.10;;;;;;;;;;5013883;28;20190;-88
2021/12/24 02:31:46;;;;;;;45.73;23.47;;;;;;;;;;5012464;28;20649;-88
2021/12/24 02:34:11;;;;;;;44.50;24.43;;;;;;;;;;5014025;28;20206;-87
2021/12/24 02:36:37;;;;;;;50.77;25.37;;;;;;;;;;5008315;28;20186;-87
2021/12/24 02:39:04;;;;;;;48.40;25.95;;;;;;;;;;5010259;28;20182;-88
2021/12/24 02:41:30;;;;;;;43.60;24.17;;;;;;;;;;5010365;28;20225;-88
2021/12/24 02:43:55;;;;;;;47.23;24.37;;;;;;;;;;5011290;28;20186;-88
2021/12/24 02:46:34;;;;;;;46.88;23.75;;;;;;;;;;5013095;28;20224;-88
2021/12/24 02:49:09;;;;;;;45.28;23.60;;;;;;;;;;5012268;28;20273;-87
2021/12/24 02:54:20;;;;;;;39.57;22.93;;;;;;;;;;5010291;28;20776;-87
2021/12/24 02:56:51;;;;;;;44.20;24.40;;;;;;;;;;5018719;28;20245;-88
2021/12/24 02:59:18;;;;;;;49.13;24.37;;;;;;;;;;5007680;28;20720;-88
2021/12/24 03:01:47;;;;;;;42.57;23.37;;;;;;;;;;5013242;28;20227;-88
2021/12/24 03:04:14;;;;;;;44.67;23.03;;;;;;;;;;5011204;28;20641;-88
2021/12/24 03:06:42;;;;;;;43.58;23.50;;;;;;;;;;5014421;28;20278;-88
2021/12/24 03:09:10;;;;;;;39.43;23.20;;;;;;;;;;5010486;28;20190;-87
2021/12/24 03:11:36;;;;;;;40.20;22.43;;;;;;;;;;5013127;28;20626;-89
2021/12/24 03:14:07;;;;;;;44.37;23.37;;;;;;;;;;5010148;28;20665;-87
2021/12/24 03:16:33;;;;;;;39.70;21.02;;;;;;;;;;5013358;28;20241;-89
2021/12/24 03:18:59;;;;;;;39.53;22.58;;;;;;;;;;5011353;28;20654;-87
2021/12/24 03:21:31;;;;;;;38.00;21.43;;;;;;;;;;5014791;28;20256;-87
2021/12/24 03:26:34;;;;;;;35.78;21.15;;;;;;;;;;5021360;28;20179;-89
2021/12/24 03:29:00;;;;;;;34.73;20.47;;;;;;;;;;5014025;28;20821;-87
2021/12/24 03:31:25;;;;;;;35.40;21.30;;;;;;;;;;5011706;28;20213;-90
2021/12/24 03:33:53;;;;;;;33.97;20.73;;;;;;;;;;5013851;28;20191;-88
2021/12/24 03:36:23;;;;;;;35.67;20.17;;;;;;;;;;5010789;28;20179;-90
2021/12/24 03:38:49;;;;;;;36.22;18.92;;;;;;;;;;5007923;28;20183;-90
2021/12/24 03:41:15;;;;;;;32.17;18.80;;;;;;;;;;5009602;28;20240;-89
2021/12/24 03:43:40;;;;;;;30.57;18.37;;;;;;;;;;5011737;28;20187;-90
2021/12/24 03:46:10;;;;;;;30.58;17.95;;;;;;;;;;5014494;28;20262;-90
2021/12/24 03:56:24;;;;;;;28.83;17.60;;;;;;;;;;5011915;28;20211;-89
2021/12/24 03:58:50;;;;;;;29.27;17.40;;;;;;;;;;5008447;28;20231;-89
2021/12/24 04:01:15;;;;;;;29.43;17.43;;;;;;;;;;5007646;28;20936;-88
2021/12/24 04:03:41;;;;;;;31.57;18.33;;;;;;;;;;5012408;28;20189;-89
2021/12/24 04:06:06;;;;;;;30.03;18.53;;;;;;;;;;5008171;28;20183;-89
2021/12/24 04:08:33;;;;;;;34.13;18.77;;;;;;;;;;5013584;28;20186;-89
2021/12/24 04:10:58;;;;;;;36.20;18.63;;;;;;;;;;5011011;28;20210;-88
2021/12/24 04:13:23;;;;;;;40.87;20.33;;;;;;;;;;5009724;28;20553;-88
2021/12/24 04:15:49;;;;;;;36.50;20.17;;;;;;;;;;5014577;28;20217;-88
2021/12/24 04:18:21;;;;;;;36.90;21.20;;;;;;;;;;5003313;28;20195;-88
2021/12/24 04:26:15;;;;;;;42.50;22.17;;;;;;;;;;5014891;28;20201;-88
2021/12/24 04:28:40;;;;;;;40.20;22.30;;;;;;;;;;5009160;28;20186;-88
2021/12/24 04:31:06;;;;;;;37.57;22.37;;;;;;;;;;5016499;28;20301;-88
2021/12/24 04:33:38;;;;;;;46.80;23.77;;;;;;;;;;5011418;28;20201;-88
2021/12/24 04:53:07;;;;;;;45.13;23.20;;;;;;;;;;5014776;28;20225;-87
2021/12/24 05:03:46;;;;;;;45.07;23.40;;;;;;;;;;5030494;28;20205;-88
2021/12/24 05:06:28;;;;;;;44.23;21.90;;;;;;;;;;5008034;28;20562;-88
2021/12/24 05:08:56;;;;;;;42.43;21.47;;;;;;;;;;5015884;28;20178;-88
2021/12/24 05:11:23;;;;;;;44.83;22.67;;;;;;;;;;5010009;28;20226;-88
2021/12/24 05:13:50;;;;;;;44.93;22.27;;;;;;;;;;5014716;28;20641;-88
2021/12/24 05:16:38;;;;;;;43.30;22.53;;;;;;;;;;5028133;28;20541;-88
2021/12/24 05:21:48;;;;;;;47.33;22.63;;;;;;;;;;5029789;28;20214;-88
2021/12/24 05:24:16;;;;;;;42.17;22.80;;;;;;;;;;5027906;28;20224;-88
2021/12/24 05:26:49;;;;;;;38.50;21.70;;;;;;;;;;5013146;28;20655;-88
2021/12/24 05:29:16;;;;;;;40.67;21.93;;;;;;;;;;5030390;28;20217;-88
2021/12/24 05:31:42;;;;;;;41.20;21.30;;;;;;;;;;5013357;28;20186;-88
2021/12/24 05:34:07;;;;;;;47.20;22.83;;;;;;;;;;5004160;28;20186;-87
2021/12/24 05:36:33;;;;;;;43.50;23.33;;;;;;;;;;5012595;28;20216;-88
2021/12/24 05:38:59;;;;;;;39.43;21.20;;;;;;;;;;5012808;28;20187;-88
2021/12/24 05:41:25;;;;;;;50.70;22.27;;;;;;;;;;5010969;28;20209;-88
2021/12/24 05:43:52;;;;;;;47.33;23.27;;;;;;;;;;5011564;28;20186;-88
2021/12/24 05:46:17;;;;;;;40.13;22.10;;;;;;;;;;5009898;28;20924;-88
2021/12/24 05:48:42;;;;;;;44.17;21.03;;;;;;;;;;5012688;28;20246;-88
2021/12/24 05:51:09;;;;;;;43.60;20.50;;;;;;;;;;5029943;28;20174;-88
2021/12/24 05:53:35;;;;;;;41.57;22.03;;;;;;;;;;5013223;28;20193;-88
2021/12/24 05:56:01;;;;;;;40.47;20.83;;;;;;;;;;5033627;28;20182;-88
2021/12/24 05:58:26;;;;;;;40.53;20.60;;;;;;;;;;5012926;28;20201;-88
2021/12/24 06:00:52;;;;;;;39.15;20.88;;;;;;;;;;5010863;28;20318;-88
2021/12/24 06:03:17;;;;;;;36.90;17.97;;;;;;;;;;5003638;28;20245;-88
2021/12/24 06:05:43;;;;;;;34.75;19.10;;;;;;;;;;5014229;28;20211;-88
2021/12/24 06:08:09;;;;;;;33.35;19.13;;;;;;;;;;5008734;28;20198;-88
2021/12/24 06:10:35;;;;;;;37.50;17.75;;;;;;;;;;5005797;28;20317;-88
2021/12/24 06:13:03;;;;;;;34.63;17.23;;;;;;;;;;5007402;28;20269;-88
2021/12/24 06:15:29;;;;;;;32.33;17.57;;;;;;;;;;5012293;28;20208;-88
2021/12/24 06:17:57;;;;;;;32.95;16.00;;;;;;;;;;5008479;28;20194;-88
2021/12/24 06:20:24;;;;;;;26.77;16.23;;;;;;;;;;5010197;28;20183;-88
2021/12/24 06:22:51;;;;;;;36.85;17.77;;;;;;;;;;5010234;28;20210;-88
2021/12/24 06:25:18;;;;;;;27.52;16.20;;;;;;;;;;5005844;28;20282;-88
2021/12/24 06:27:46;;;;;;;27.80;16.00;;;;;;;;;;5007008;28;20182;-88
2021/12/24 06:30:12;;;;;;;28.13;14.83;;;;;;;;;;4994916;28;20210;-88
2021/12/24 06:32:37;;;;;;;32.10;15.07;;;;;;;;;;5010845;28;21013;-88
2021/12/24 06:35:04;;;;;;;31.27;15.73;;;;;;;;;;5005728;28;20278;-88
2021/12/24 06:37:29;;;;;;;28.80;14.90;;;;;;;;;;5006598;28;20175;-88
2021/12/24 06:39:55;;;;;;;29.43;16.30;;;;;;;;;;5005057;28;20895;-88
2021/12/24 06:42:23;;;;;;;42.30;15.67;;;;;;;;;;5009975;28;20194;-88
2021/12/24 06:44:49;;;;;;;31.67;15.83;;;;;;;;;;5001128;28;20642;-88
2021/12/24 06:47:14;;;;;;;30.73;15.93;;;;;;;;;;5009197;28;20181;-88
2021/12/24 06:49:40;;;;;;;32.37;15.30;;;;;;;;;;5007232;28;20190;-88
2021/12/24 06:52:06;;;;;;;27.63;14.50;;;;;;;;;;5010343;28;20171;-88
2021/12/24 06:54:33;;;;;;;32.60;15.17;;;;;;;;;;5005616;28;20593;-88
2021/12/24 06:56:59;;;;;;;35.03;14.80;;;;;;;;;;5004964;28;20351;-88
2021/12/24 06:59:25;;;;;;;33.95;15.68;;;;;;;;;;5011112;28;20678;-87
2021/12/24 07:01:53;;;;;;;27.33;14.13;;;;;;;;;;5008011;28;20242;-88
2021/12/24 07:04:18;;;;;;;44.72;16.60;;;;;;;;;;5006035;28;20703;-88
2021/12/24 07:06:45;;;;;;;39.15;15.27;;;;;;;;;;5009354;28;20194;-87
2021/12/24 07:09:15;;;;;;;31.10;14.70;;;;;;;;;;5015027;28;20183;-88
2021/12/24 07:11:41;;;;;;;37.53;14.75;;;;;;;;;;5012357;28;20273;-88
2021/12/24 07:14:06;;;;;;;27.10;14.30;;;;;;;;;;5015000;28;20193;-88
2021/12/24 07:16:32;;;;;;;32.65;15.25;;;;;;;;;;5004931;28;20191;-88
2021/12/24 07:18:57;;;;;;;31.73;14.65;;;;;;;;;;5012601;28;20233;-88
2021/12/24 07:21:23;;;;;;;29.20;13.93;;;;;;;;;;5009622;28;20182;-88
2021/12/24 07:23:51;;;;;;;30.70;13.05;;;;;;;;;;5012102;28;20198;-88
2021/12/24 07:26:16;;;;;;;32.45;14.60;;;;;;;;;;5006575;28;20191;-88
2021/12/24 07:28:41;;;;;;;33.30;13.60;;;;;;;;;;5010368;28;20191;-88
2021/12/24 07:31:07;;;;;;;26.17;14.05;;;;;;;;;;5011648;28;20175;-88
2021/12/24 07:33:32;;;;;;;34.00;13.70;;;;;;;;;;5011986;28;20189;-88
2021/12/24 07:35:57;;;;;;;29.85;13.10;;;;;;;;;;5007902;28;20520;-88
2021/12/24 07:38:23;;;;;;;28.67;13.05;;;;;;;;;;5013065;28;20217;-88
2021/12/24 07:40:48;;;;;;;32.40;13.93;;;;;;;;;;5006080;28;20711;-88
2021/12/24 07:43:14;;;;;;;34.20;14.27;;;;;;;;;;5007954;28;20207;-88
2021/12/24 07:45:42;;;;;;;29.02;12.70;;;;;;;;;;5011998;28;20710;-88
2021/12/24 07:53:07;;;;;;;26.30;12.50;;;;;;;;;;5010760;28;20194;-88
2021/12/24 07:55:34;;;;;;;34.05;13.52;;;;;;;;;;5010240;28;20684;-88
2021/12/24 07:57:59;;;;;;;34.95;13.52;;;;;;;;;;5005056;28;20230;-88
2021/12/24 08:00:26;;;;;;;33.65;14.48;;;;;;;;;;5010077;28;20217;-88
2021/12/24 08:02:57;;;;;;;37.60;14.70;;;;;;;;;;5010413;28;20570;-88
2021/12/24 08:05:25;;;;;;;33.63;15.30;;;;;;;;;;5010807;28;20214;-88
2021/12/24 08:07:54;;;;;;;34.42;14.68;;;;;;;;;;5010186;28;20182;-88
2021/12/24 08:10:23;;;;;;;27.60;15.30;;;;;;;;;;5007227;28;20187;-88
2021/12/24 08:12:49;;;;;;;38.00;15.77;;;;;;;;;;5011939;28;20269;-88
2021/12/24 08:15:16;;;;;;;36.30;16.08;;;;;;;;;;5005204;28;20290;-88
2021/12/24 08:17:42;;;;;;;35.03;15.73;;;;;;;;;;5003031;28;20222;-88
2021/12/24 08:20:08;;;;;;;35.58;15.77;;;;;;;;;;5011226;28;20194;-88
2021/12/24 08:22:34;;;;;;;35.88;16.02;;;;;;;;;;5003059;28;20235;-88
2021/12/24 08:25:00;;;;;;;40.35;16.67;;;;;;;;;;5006943;28;20198;-88
2021/12/24 08:27:25;;;;;;;38.47;15.30;;;;;;;;;;4318634;28;10000025;-88
2021/12/24 08:29:52;;;;;;;34.27;16.03;;;;;;;;;;5008825;28;20229;-88
2021/12/24 08:32:17;;;;;;;42.88;16.42;;;;;;;;;;5006528;28;20175;-88
2021/12/24 08:34:44;;;;;;;31.08;15.73;;;;;;;;;;5010924;28;20195;-89
2021/12/24 08:37:09;;;;;;;41.83;16.05;;;;;;;;;;5010941;28;20248;-89
2021/12/24 08:39:35;;;;;;;42.13;17.85;;;;;;;;;;5007312;28;20187;-89
2021/12/24 08:42:00;;;;;;;37.92;15.38;;;;;;;;;;5012183;28;20352;-89
2021/12/24 08:44:30;;;;;;;41.57;16.17;;;;;;;;;;5010986;28;20187;-88
2021/12/24 08:47:04;;;;;;;34.15;15.10;;;;;;;;;;5008360;28;20221;-88
2021/12/24 08:49:29;;;;;;;45.22;15.75;;;;;;;;;;5012305;28;20205;-89
2021/12/24 08:51:56;;;;;;;34.42;14.18;;;;;;;;;;5008278;28;20811;-89
2021/12/24 08:54:24;;;;;;;34.72;13.90;;;;;;;;;;5010810;28;20187;-88
2021/12/24 08:56:53;;;;;;;32.35;13.23;;;;;;;;;;5008593;28;20713;-88
2021/12/24 08:59:18;;;;;;;42.40;13.75;;;;;;;;;;5005710;28;20260;-89
2021/12/24 09:01:44;;;;;;;35.22;12.95;;;;;;;;;;5005149;28;20235;-88
2021/12/24 09:04:11;;;;;;;38.92;13.63;;;;;;;;;;5012840;28;20186;-88
2021/12/24 09:06:37;;;;;;;31.98;11.90;;;;;;;;;;5009938;28;20194;-89
2021/12/24 09:09:06;;;;;;;33.55;12.75;;;;;;;;;;5014499;28;20183;-89
2021/12/24 09:11:36;;;;;;;32.95;13.02;;;;;;;;;;5012214;28;20183;-88
2021/12/24 09:14:04;;;;;;;35.72;12.32;;;;;;;;;;5007347;28;20874;-88
2021/12/24 09:16:35;;;;;;;29.13;11.90;;;;;;;;;;5021312;28;20210;-88
2021/12/24 09:19:05;;;;;;;35.05;11.13;;;;;;;;;;5007852;28;20221;-88
2021/12/24 09:21:34;;;;;;;32.20;11.88;;;;;;;;;;5009338;28;20186;-88
2021/12/24 09:24:01;;;;;;;33.42;12.18;;;;;;;;;;5005689;28;20199;-88
2021/12/24 09:26:29;;;;;;;31.33;11.55;;;;;;;;;;5005979;28;20184;-89
2021/12/24 09:28:58;;;;;;;37.70;10.97;;;;;;;;;;5004776;28;20281;-89
2021/12/24 09:31:25;;;;;;;32.38;10.57;;;;;;;;;;5006303;28;20191;-89
2021/12/24 09:33:54;;;;;;;43.10;11.50;;;;;;;;;;5010449;28;20190;-89
2021/12/24 09:36:26;;;;;;;28.52;11.43;;;;;;;;;;5008927;28;20190;-89
2021/12/24 09:38:54;;;;;;;31.42;10.48;;;;;;;;;;5008209;28;20245;-89
2021/12/24 09:41:23;;;;;;;31.13;11.23;;;;;;;;;;5008291;28;20276;-89
2021/12/24 09:43:49;;;;;;;29.27;10.63;;;;;;;;;;5005451;28;20214;-89
2021/12/24 09:46:15;;;;;;;34.90;11.80;;;;;;;;;;5010126;28;20275;-89
2021/12/24 09:48:41;;;;;;;39.27;11.40;;;;;;;;;;5007963;28;20237;-89
2021/12/24 09:51:07;;;;;;;44.73;12.60;;;;;;;;;;5007662;28;20700;-88
2021/12/24 09:53:34;;;;;;;35.57;12.27;;;;;;;;;;5009442;28;20215;-88
2021/12/24 09:55:59;;;;;;;42.50;12.90;;;;;;;;;;5008284;28;20645;-88
2021/12/24 09:58:25;;;;;;;35.27;12.07;;;;;;;;;;5014259;28;20245;-88
2021/12/24 10:00:53;;;;;;;34.47;13.17;;;;;;;;;;5009412;28;20218;-88
2021/12/24 10:03:36;;;;;;;30.00;12.03;;;;;;;;;;5009424;28;20205;-89
2021/12/24 10:06:03;;;;;;;33.60;11.80;;;;;;;;;;5013346;28;20196;-89
2021/12/24 10:08:29;;;;;;;35.67;12.63;;;;;;;;;;5015325;28;20187;-88
2021/12/24 10:11:09;;;;;;;37.63;12.70;;;;;;;;;;5013751;28;20297;-89
2021/12/24 10:13:54;;;;;;;29.43;11.80;;;;;;;;;;5017962;28;20170;-89
2021/12/24 10:16:25;;;;;;;35.33;11.47;;;;;;;;;;5008348;28;20193;-89
2021/12/24 10:18:55;;;;;;;35.23;11.73;;;;;;;;;;5010203;28;20186;-89
2021/12/24 10:21:24;;;;;;;38.53;11.63;;;;;;;;;;5014309;28;20192;-89
2021/12/24 10:23:56;;;;;;;26.73;11.37;;;;;;;;;;5008664;28;20210;-89
2021/12/24 10:26:21;;;;;;;27.10;11.87;;;;;;;;;;5015819;28;20220;-89
2021/12/24 10:29:09;;;;;;;33.87;11.47;;;;;;;;;;5005924;28;20190;-89
2021/12/24 10:31:48;;;;;;;33.60;11.57;;;;;;;;;;5015226;28;20189;-89
2021/12/24 10:34:19;;;;;;;28.70;11.33;;;;;;;;;;5019660;28;20186;-89
2021/12/24 10:37:00;;;;;;;26.10;11.87;;;;;;;;;;5015707;28;20224;-89
2021/12/24 10:39:45;;;;;;;33.63;11.37;;;;;;;;;;5004095;28;20652;-90
2021/12/24 10:42:19;;;;;;;37.07;12.10;;;;;;;;;;5014734;28;20214;-88
2021/12/24 10:44:46;;;;;;;32.60;12.30;;;;;;;;;;5015872;28;20204;-88
2021/12/24 10:47:13;;;;;;;39.47;14.00;;;;;;;;;;5011148;28;20194;-88
2021/12/24 10:55:00;;;;;;;32.10;12.53;;;;;;;;;;5037646;28;20314;-89
2021/12/24 10:57:30;;;;;;;37.63;12.10;;;;;;;;;;5012162;28;20222;-89
2021/12/24 10:59:59;;;;;;;33.83;13.13;;;;;;;;;;5018550;28;20204;-89
2021/12/24 11:02:33;;;;;;;33.13;12.87;;;;;;;;;;5013432;28;20230;-88
2021/12/24 11:05:03;;;;;;;32.13;13.43;;;;;;;;;;5014450;28;20193;-88
2021/12/24 11:07:38;;;;;;;27.20;13.00;;;;;;;;;;5008340;28;20630;-88
2021/12/24 11:10:11;;;;;;;33.07;12.47;;;;;;;;;;5013579;28;20229;-89
2021/12/24 11:12:39;;;;;;;27.03;12.07;;;;;;;;;;5016277;28;20183;-89
2021/12/24 11:15:29;;;;;;;24.47;10.70;;;;;;;;;;5013383;28;20187;-89
2021/12/24 11:18:18;;;;;;;37.80;17.30;;;;;;;;;;5013683;28;20669;-89
2021/12/24 11:20:44;;;;;;;37.07;17.10;;;;;;;;;;5016429;28;20217;-89
2021/12/24 11:23:12;;;;;;;31.03;12.63;;;;;;;;;;5013967;28;20628;-89
2021/12/24 11:25:44;;;;;;;30.90;11.00;;;;;;;;;;5010344;28;20528;-89
2021/12/24 11:28:11;;;;;;;28.20;13.50;;;;;;;;;;5015723;28;20195;-88
2021/12/24 11:30:41;;;;;;;21.30;9.97;;;;;;;;;;5013956;28;20194;-88
2021/12/24 11:33:12;;;;;;;24.47;12.60;;;;;;;;;;5011272;28;20211;-88
2021/12/24 11:35:37;;;;;;;35.30;16.80;;;;;;;;;;5013433;28;20191;-88
2021/12/24 11:38:03;;;;;;;61.77;26.70;;;;;;;;;;5015119;28;20202;-89
2021/12/24 11:40:29;;;;;;;42.67;18.40;;;;;;;;;;5011441;28;20193;-89
2021/12/24 11:42:59;;;;;;;44.33;20.77;;;;;;;;;;5013618;28;20218;-90
2021/12/24 11:45:27;;;;;;;33.20;14.77;;;;;;;;;;5010849;28;20191;-89
2021/12/24 11:47:53;;;;;;;29.10;15.07;;;;;;;;;;4999821;28;20187;-89
2021/12/24 11:50:20;;;;;;;24.87;11.43;;;;;;;;;;5011933;28;20198;-89
2021/12/24 11:52:49;;;;;;;25.73;10.17;;;;;;;;;;5016581;28;20187;-88
2021/12/24 11:55:15;;;;;;;22.13;9.60;;;;;;;;;;5013868;28;20182;-89
2021/12/24 11:57:59;;;;;;;18.73;8.97;;;;;;;;;;5014498;28;20302;-89
2021/12/24 12:00:33;;;;;;;18.77;9.40;;;;;;;;;;5031885;28;20190;-90
2021/12/24 12:03:08;;;;;;;20.10;9.67;;;;;;;;;;5019698;28;20297;-88
2021/12/24 12:05:54;;;;;;;24.33;8.48;;;;;;;;;;5008519;28;20265;-89
2021/12/24 12:11:17;;;;;;;15.40;7.38;;;;;;;;;;5009525;28;20743;-89
2021/12/24 12:14:18;;;;;;;10.40;7.47;;;;;;;;;;5013146;28;20218;-89
2021/12/24 12:16:57;;;;;;;15.20;7.73;;;;;;;;;;4989547;28;20187;-89
2021/12/24 12:19:49;;;;;;;14.83;7.33;;;;;;;;;;5015949;28;20186;-89
2021/12/24 12:25:36;;;;;;;15.37;7.67;;;;;;;;;;5012054;28;20186;-89
2021/12/24 12:28:10;;;;;;;16.63;7.43;;;;;;;;;;5019772;28;20190;-89
2021/12/24 12:30:48;;;;;;;14.83;7.27;;;;;;;;;;5018779;28;20186;-89
2021/12/24 12:33:27;;;;;;;14.67;7.10;;;;;;;;;;5013524;28;20230;-89
2021/12/24 12:35:58;;;;;;;15.47;7.33;;;;;;;;;;5012072;28;20657;-88
2021/12/24 12:38:35;;;;;;;17.37;7.93;;;;;;;;;;5012710;28;20215;-89
2021/12/24 12:41:32;;;;;;;14.70;8.13;;;;;;;;;;5021158;28;20187;-89
2021/12/24 12:44:01;;;;;;;17.57;10.03;;;;;;;;;;5009439;28;20265;-90
2021/12/24 12:46:31;;;;;;;20.20;12.40;;;;;;;;;;5019321;28;20186;-89
2021/12/24 12:49:00;;;;;;;17.23;10.93;;;;;;;;;;5011169;28;20218;-88
2021/12/24 12:51:47;;;;;;;22.90;9.73;;;;;;;;;;5024579;28;20172;-88
2021/12/24 12:54:48;;;;;;;15.70;8.03;;;;;;;;;;5014496;28;20692;-89
2021/12/24 12:57:27;;;;;;;14.02;7.03;;;;;;;;;;4975613;28;20213;-89
2021/12/24 13:00:08;;;;;;;15.47;7.43;;;;;;;;;;5010395;28;20245;-88
2021/12/24 13:05:42;;;;;;;16.52;7.95;;;;;;;;;;5015623;28;21136;-88
2021/12/24 13:08:13;;;;;;;19.40;7.93;;;;;;;;;;5008321;28;20237;-88
2021/12/24 13:10:39;;;;;;;19.20;8.10;;;;;;;;;;5004572;28;20221;-88
2021/12/24 13:13:07;;;;;;;16.03;7.73;;;;;;;;;;5013898;28;20187;-88
2021/12/24 13:15:43;;;;;;;17.90;7.67;;;;;;;;;;5004938;28;20194;-88
2021/12/24 13:18:28;;;;;;;14.67;7.93;;;;;;;;;;5012764;28;20186;-88
2021/12/24 13:23:35;;;;;;;17.93;8.83;;;;;;;;;;5017246;28;20210;-88
2021/12/24 13:26:18;;;;;;;23.80;8.70;;;;;;;;;;5003364;28;20241;-89
2021/12/24 13:28:58;;;;;;;22.10;10.50;;;;;;;;;;5009630;28;20205;-89
2021/12/24 13:31:25;;;;;;;15.57;7.95;;;;;;;;;;5007191;28;20206;-88
2021/12/24 13:33:53;;;;;;;15.60;7.20;;;;;;;;;;5005851;28;20186;-89
2021/12/24 13:36:29;;;;;;;17.30;6.30;;;;;;;;;;5005576;28;20193;-88
2021/12/24 13:39:15;;;;;;;14.10;5.87;;;;;;;;;;5011863;28;20171;-89
2021/12/24 13:41:44;;;;;;;14.03;6.50;;;;;;;;;;5005914;28;20311;-89
2021/12/24 13:44:24;;;;;;;18.37;7.10;;;;;;;;;;5011709;28;20714;-89
2021/12/24 13:47:12;;;;;;;15.93;6.50;;;;;;;;;;5011621;28;20192;-88
2021/12/24 13:50:00;;;;;;;16.97;6.70;;;;;;;;;;5011309;28;20201;-89
2021/12/24 13:55:32;;;;;;;10.93;5.97;;;;;;;;;;5016263;28;20781;-88
2021/12/24 13:58:01;;;;;;;13.40;5.63;;;;;;;;;;5013941;28;20313;-88
2021/12/24 14:00:33;;;;;;;16.70;5.45;;;;;;;;;;5012685;28;20183;-88
2021/12/24 14:03:03;;;;;;;17.58;6.88;;;;;;;;;;5008925;28;20210;-89
2021/12/24 14:05:32;;;;;;;14.82;5.50;;;;;;;;;;5011278;28;20337;-89
2021/12/24 14:08:09;;;;;;;12.73;5.20;;;;;;;;;;5009014;28;20183;-88
2021/12/24 14:10:35;;;;;;;8.10;3.73;;;;;;;;;;5028085;28;20185;-88
2021/12/24 14:13:08;;;;;;;5.85;3.67;;;;;;;;;;5007527;28;20774;-88
2021/12/24 14:15:47;;;;;;;5.70;3.50;;;;;;;;;;5021882;28;20171;-89
2021/12/24 14:18:43;;;;;;;5.03;2.80;;;;;;;;;;5015570;28;20198;-88
2021/12/24 14:24:14;;;;;;;3.37;2.67;;;;;;;;;;5017573;28;20202;-88
2021/12/24 14:26:45;;;;;;;4.13;2.80;;;;;;;;;;5014869;28;20281;-88
2021/12/24 14:29:11;;;;;;;4.03;3.23;;;;;;;;;;5015081;28;20182;-88
2021/12/24 14:31:55;;;;;;;4.40;4.00;;;;;;;;;;5011994;28;21122;-88
2021/12/24 14:34:33;;;;;;;4.20;3.80;;;;;;;;;;5017130;28;20190;-88
2021/12/24 14:37:02;;;;;;;5.23;4.33;;;;;;;;;;5007462;28;20236;-88
2021/12/24 14:39:35;;;;;;;5.50;5.00;;;;;;;;;;5016861;28;20240;-88
2021/12/24 14:42:12;;;;;;;5.67;4.70;;;;;;;;;;5016545;28;20203;-88
2021/12/24 14:44:37;;;;;;;5.87;4.97;;;;;;;;;;5015773;28;20186;-88
2021/12/24 14:47:05;;;;;;;5.93;4.83;;;;;;;;;;5017885;28;21568;-88
2021/12/24 14:49:57;;;;;;;5.13;4.70;;;;;;;;;;5011557;28;20230;-88
2021/12/24 14:52:25;;;;;;;5.80;5.13;;;;;;;;;;5017500;28;20183;-88
2021/12/24 14:55:19;;;;;;;4.90;4.50;;;;;;;;;;5017319;28;20187;-88
2021/12/24 14:57:52;;;;;;;5.23;4.73;;;;;;;;;;5017146;28;20665;-88
2021/12/24 15:00:21;;;;;;;6.50;5.80;;;;;;;;;;5016237;28;20230;-88
2021/12/24 15:02:48;;;;;;;8.43;5.43;;;;;;;;;;5014598;28;20727;-88
2021/12/24 15:05:32;;;;;;;5.40;4.90;;;;;;;;;;5017429;28;20292;-88
2021/12/24 15:07:59;;;;;;;5.93;5.33;;;;;;;;;;5022626;28;20175;-88
2021/12/24 15:10:25;;;;;;;7.00;5.87;;;;;;;;;;5009674;28;20190;-88
2021/12/24 15:13:02;;;;;;;5.63;5.03;;;;;;;;;;5014855;28;20258;-88
2021/12/24 15:15:29;;;;;;;6.00;5.40;;;;;;;;;;5013815;28;20607;-88
2021/12/24 15:18:04;;;;;;;5.40;4.90;;;;;;;;;;5013899;28;20179;-88
2021/12/24 15:20:33;;;;;;;5.63;4.60;;;;;;;;;;5016822;28;20567;-89
2021/12/24 15:22:59;;;;;;;6.07;4.87;;;;;;;;;;5022060;28;20195;-87
2021/12/24 15:25:24;;;;;;;6.77;5.87;;;;;;;;;;5020183;28;20193;-89
2021/12/24 15:27:52;;;;;;;6.17;4.70;;;;;;;;;;5005218;28;20649;-88
2021/12/24 15:30:18;;;;;;;5.07;4.50;;;;;;;;;;5016892;28;20924;-88
2021/12/24 15:32:43;;;;;;;4.73;4.27;;;;;;;;;;5006631;28;20206;-88
2021/12/24 15:35:09;;;;;;;6.87;4.70;;;;;;;;;;5018939;28;20202;-88
2021/12/24 15:37:35;;;;;;;5.17;4.67;;;;;;;;;;5009450;28;20210;-87
2021/12/24 15:40:00;;;;;;;5.43;4.50;;;;;;;;;;5010386;28;20202;-88
2021/12/24 15:42:28;;;;;;;5.17;4.67;;;;;;;;;;5008949;28;20202;-88
2021/12/24 15:44:54;;;;;;;5.43;4.60;;;;;;;;;;5016903;28;20333;-88
2021/12/24 15:47:19;;;;;;;6.10;4.90;;;;;;;;;;5007544;28;20226;-88
2021/12/24 15:49:45;;;;;;;7.43;5.77;;;;;;;;;;5018814;28;20290;-87
2021/12/24 15:52:11;;;;;;;7.07;4.90;;;;;;;;;;5013353;28;20175;-87
2021/12/24 15:54:36;;;;;;;7.83;5.87;;;;;;;;;;5013553;28;20559;-87
2021/12/24 15:57:03;;;;;;;7.13;5.57;;;;;;;;;;5014695;28;20665;-87
2021/12/24 15:59:31;;;;;;;6.23;5.60;;;;;;;;;;5012476;28;20195;-87
2021/12/24 16:01:58;;;;;;;6.83;5.63;;;;;;;;;;5013675;28;20219;-87
2021/12/24 16:04:24;;;;;;;7.30;5.77;;;;;;;;;;5012326;28;20222;-87
2021/12/24 16:06:49;;;;;;;6.40;5.57;;;;;;;;;;5016945;28;20187;-87
2021/12/24 16:09:18;;;;;;;7.43;5.63;;;;;;;;;;5011778;28;20209;-88
2021/12/24 16:11:43;;;;;;;7.80;6.10;;;;;;;;;;5010863;28;20174;-87
2021/12/24 16:14:09;;;;;;;8.40;6.20;;;;;;;;;;5013936;28;20190;-89
2021/12/24 16:16:37;;;;;;;7.50;5.90;;;;;;;;;;5015854;28;20181;-88
2021/12/24 16:19:02;;;;;;;9.37;6.20;;;;;;;;;;5015846;28;20195;-88
2021/12/24 16:21:28;;;;;;;8.83;6.17;;;;;;;;;;5017251;28;20676;-87
2021/12/24 16:23:53;;;;;;;11.13;6.40;;;;;;;;;;5016267;28;20222;-88
2021/12/24 16:26:18;;;;;;;7.17;5.80;;;;;;;;;;5013734;28;20193;-88
2021/12/24 16:28:44;;;;;;;8.87;6.43;;;;;;;;;;5010485;28;20197;-88
2021/12/24 16:31:09;;;;;;;7.47;6.67;;;;;;;;;;5010866;28;20193;-87
2021/12/24 16:33:35;;;;;;;7.03;5.97;;;;;;;;;;5013750;28;20172;-88
2021/12/24 16:36:00;;;;;;;5.93;5.17;;;;;;;;;;5013476;28;20175;-87